Time,TemperatureF,DewpointF,PressureIn,WindDirection,WindDirectionDegrees,WindSpeedMPH,WindSpeedGustMPH,Humidity,HourlyPrecipIn,Conditions,Clouds,dailyrainin,SoftwareType,DateUTC
2013-04-26 00:00:00,45.0,-99.9,30.24,NNE,24,7.0,9.0,-999,-99.99,,,-99.99,,2013-04-26 04:00:00,
2013-04-26 00:43:00,45.0,-99.9,30.24,NNE,24,7.0,9.0,-999,-99.99,,,-99.99,,2013-04-26 04:43:00,
2013-04-26 00:53:00,45.0,-99.9,30.24,NNE,24,7.0,9.0,-999,-99.99,,,-99.99,,2013-04-26 04:53:00,
2013-04-26 01:00:00,45.0,-99.9,30.25,ENE,58,7.0,9.0,-999,-99.99,,,-99.99,,2013-04-26 05:00:00,
2013-04-26 01:42:00,45.0,-99.9,30.25,ENE,58,7.0,9.0,-999,-99.99,,,-99.99,,2013-04-26 05:42:00,
2013-04-26 01:52:00,45.0,-99.9,30.25,ENE,58,7.0,9.0,-999,-99.99,,,-99.99,,2013-04-26 05:52:00,
2013-04-26 02:00:00,44.0,-99.9,30.27,NNE,20,5.0,6.0,-999,-99.99,,,-99.99,,2013-04-26 06:00:00,
2013-04-26 03:00:00,44.0,-99.9,30.29,NNE,15,8.0,10.0,-999,-99.99,,,-99.99,,2013-04-26 07:00:00,
2013-04-26 03:42:00,44.0,-99.9,30.29,NNE,15,8.0,10.0,-999,-99.99,,,-99.99,,2013-04-26 07:42:00,
2013-04-26 03:52:00,44.0,-99.9,30.29,NNE,15,8.0,10.0,-999,-99.99,,,-99.99,,2013-04-26 07:52:00,
2013-04-26 04:00:00,44.0,-99.9,30.31,NNE,23,9.0,10.0,-999,-99.99,,,-99.99,,2013-04-26 08:00:00,
2013-04-26 04:42:00,44.0,-99.9,30.31,NNE,23,9.0,10.0,-999,-99.99,,,-99.99,,2013-04-26 08:42:00,
2013-04-26 04:52:00,44.0,-99.9,30.31,NNE,23,9.0,10.0,-999,-99.99,,,-99.99,,2013-04-26 08:52:00,
2013-04-26 05:00:00,44.0,-99.9,30.32,NNE,18,11.0,13.0,-999,-99.99,,,-99.99,,2013-04-26 09:00:00,
2013-04-26 05:43:00,44.0,-99.9,30.32,NNE,18,11.0,13.0,-999,-99.99,,,-99.99,,2013-04-26 09:43:00,
2013-04-26 05:53:00,44.0,-99.9,30.32,NNE,18,11.0,13.0,-999,-99.99,,,-99.99,,2013-04-26 09:53:00,
2013-04-26 06:00:00,43.0,-99.9,30.34,NNE,21,13.0,15.0,-999,-99.99,,,-99.99,,2013-04-26 10:00:00,
2013-04-26 06:42:00,43.0,-99.9,30.34,NNE,21,13.0,15.0,-999,-99.99,,,-99.99,,2013-04-26 10:42:00,
2013-04-26 06:52:00,43.0,-99.9,30.34,NNE,21,13.0,15.0,-999,-99.99,,,-99.99,,2013-04-26 10:52:00,
2013-04-26 07:00:00,44.0,-99.9,30.36,NNE,25,13.0,15.0,-999,-99.99,,,-99.99,,2013-04-26 11:00:00,
2013-04-26 07:42:00,44.0,-99.9,30.36,NNE,25,13.0,15.0,-999,-99.99,,,-99.99,,2013-04-26 11:42:00,
2013-04-26 07:52:00,44.0,-99.9,30.36,NNE,25,13.0,15.0,-999,-99.99,,,-99.99,,2013-04-26 11:52:00,
2013-04-26 08:00:00,43.0,-99.9,30.38,NNE,23,12.0,14.0,-999,-99.99,,,-99.99,,2013-04-26 12:00:00,
2013-04-26 08:42:00,43.0,-99.9,30.38,NNE,23,12.0,14.0,-999,-99.99,,,-99.99,,2013-04-26 12:42:00,
2013-04-26 08:52:00,43.0,-99.9,30.38,NNE,23,12.0,14.0,-999,-99.99,,,-99.99,,2013-04-26 12:52:00,
2013-04-26 09:00:00,44.0,-99.9,30.39,NE,36,9.0,11.0,-999,-99.99,,,-99.99,,2013-04-26 13:00:00,
2013-04-26 09:42:00,44.0,-99.9,30.39,NE,36,9.0,11.0,-999,-99.99,,,-99.99,,2013-04-26 13:42:00,
2013-04-26 09:52:00,44.0,-99.9,30.39,NE,36,9.0,11.0,-999,-99.99,,,-99.99,,2013-04-26 13:52:00,
2013-04-26 10:00:00,45.0,-99.9,30.40,East,85,10.0,14.0,-999,-99.99,,,-99.99,,2013-04-26 14:00:00,
2013-04-26 10:42:00,45.0,-99.9,30.40,East,85,10.0,14.0,-999,-99.99,,,-99.99,,2013-04-26 14:42:00,
2013-04-26 10:52:00,45.0,-99.9,30.40,East,85,10.0,14.0,-999,-99.99,,,-99.99,,2013-04-26 14:52:00,
2013-04-26 11:00:00,45.0,-99.9,30.41,NE,47,5.0,7.0,-999,-99.99,,,-99.99,,2013-04-26 15:00:00,
2013-04-26 11:43:00,45.0,-99.9,30.41,NE,47,5.0,7.0,-999,-99.99,,,-99.99,,2013-04-26 15:43:00,
2013-04-26 11:53:00,45.0,-99.9,30.41,NE,47,5.0,7.0,-999,-99.99,,,-99.99,,2013-04-26 15:53:00,
2013-04-26 12:00:00,47.0,-99.9,30.41,East,99,9.0,10.0,-999,-99.99,,,-99.99,,2013-04-26 16:00:00,
2013-04-26 12:42:00,47.0,-99.9,30.41,East,99,9.0,10.0,-999,-99.99,,,-99.99,,2013-04-26 16:42:00,
2013-04-26 12:53:00,47.0,-99.9,30.41,East,99,9.0,10.0,-999,-99.99,,,-99.99,,2013-04-26 16:53:00,
2013-04-26 13:00:00,46.0,-99.9,30.40,SE,126,8.0,9.0,-999,-99.99,,,-99.99,,2013-04-26 17:00:00,
2013-04-26 13:42:00,46.0,-99.9,30.40,SE,126,8.0,9.0,-999,-99.99,,,-99.99,,2013-04-26 17:42:00,
2013-04-26 13:52:00,46.0,-99.9,30.40,SE,126,8.0,9.0,-999,-99.99,,,-99.99,,2013-04-26 17:52:00,
2013-04-26 14:00:00,45.0,-99.9,30.38,SE,134,11.0,13.0,-999,-99.99,,,-99.99,,2013-04-26 18:00:00,
2013-04-26 14:42:00,45.0,-99.9,30.38,SE,134,11.0,13.0,-999,-99.99,,,-99.99,,2013-04-26 18:42:00,
2013-04-26 14:52:00,45.0,-99.9,30.38,SE,134,11.0,13.0,-999,-99.99,,,-99.99,,2013-04-26 18:52:00,
2013-04-26 15:00:00,45.0,-99.9,30.38,SE,134,13.0,16.0,-999,-99.99,,,-99.99,,2013-04-26 19:00:00,
2013-04-26 15:42:00,45.0,-99.9,30.38,SE,134,13.0,16.0,-999,-99.99,,,-99.99,,2013-04-26 19:42:00,
2013-04-26 15:52:00,45.0,-99.9,30.38,SE,134,13.0,16.0,-999,-99.99,,,-99.99,,2013-04-26 19:52:00,
2013-04-26 16:00:00,44.0,-99.9,30.36,SE,134,11.0,14.0,-999,-99.99,,,-99.99,,2013-04-26 20:00:00,
2013-04-26 16:42:00,44.0,-99.9,30.36,SE,134,11.0,14.0,-999,-99.99,,,-99.99,,2013-04-26 20:42:00,
2013-04-26 16:52:00,44.0,-99.9,30.36,SE,134,11.0,14.0,-999,-99.99,,,-99.99,,2013-04-26 20:52:00,
2013-04-26 17:00:00,44.0,-99.9,30.36,SSE,151,9.0,11.0,-999,-99.99,,,-99.99,,2013-04-26 21:00:00,
2013-04-26 17:42:00,44.0,-99.9,30.36,SSE,151,9.0,11.0,-999,-99.99,,,-99.99,,2013-04-26 21:42:00,
2013-04-26 17:53:00,44.0,-99.9,30.36,SSE,151,9.0,11.0,-999,-99.99,,,-99.99,,2013-04-26 21:53:00,
2013-04-26 18:00:00,46.0,-99.9,30.37,SSW,198,8.0,9.0,-999,-99.99,,,-99.99,,2013-04-26 22:00:00,
2013-04-26 18:42:00,46.0,-99.9,30.37,SSW,198,8.0,9.0,-999,-99.99,,,-99.99,,2013-04-26 22:42:00,
2013-04-26 18:52:00,46.0,-99.9,30.37,SSW,198,8.0,9.0,-999,-99.99,,,-99.99,,2013-04-26 22:52:00,
2013-04-26 19:00:00,45.0,-99.9,30.37,SW,226,8.0,9.0,-999,-99.99,,,-99.99,,2013-04-26 23:00:00,
2013-04-26 19:42:00,45.0,-99.9,30.37,SW,226,8.0,9.0,-999,-99.99,,,-99.99,,2013-04-26 23:42:00,
2013-04-26 19:52:00,45.0,-99.9,30.37,SW,226,8.0,9.0,-999,-99.99,,,-99.99,,2013-04-26 23:52:00,
2013-04-26 20:00:00,45.0,-99.9,30.38,SW,232,7.0,9.0,-999,-99.99,,,-99.99,,2013-04-27 00:00:00,
2013-04-26 20:42:00,45.0,-99.9,30.38,SW,232,7.0,9.0,-999,-99.99,,,-99.99,,2013-04-27 00:42:00,
2013-04-26 20:52:00,45.0,-99.9,30.38,SW,232,7.0,9.0,-999,-99.99,,,-99.99,,2013-04-27 00:52:00,
2013-04-26 21:00:00,45.0,-99.9,30.39,WSW,238,6.0,8.0,-999,-99.99,,,-99.99,,2013-04-27 01:00:00,
2013-04-26 21:42:00,45.0,-99.9,30.39,WSW,238,6.0,8.0,-999,-99.99,,,-99.99,,2013-04-27 01:42:00,
2013-04-26 21:52:00,45.0,-99.9,30.39,WSW,238,6.0,8.0,-999,-99.99,,,-99.99,,2013-04-27 01:52:00,
2013-04-26 22:00:00,44.0,-99.9,30.38,SW,220,6.0,8.0,-999,-99.99,,,-99.99,,2013-04-27 02:00:00,
2013-04-26 22:42:00,44.0,-99.9,30.38,SW,220,6.0,8.0,-999,-99.99,,,-99.99,,2013-04-27 02:42:00,
2013-04-26 22:52:00,44.0,-99.9,30.38,SW,220,6.0,8.0,-999,-99.99,,,-99.99,,2013-04-27 02:52:00,
2013-04-26 23:00:00,44.0,-99.9,30.37,SW,230,8.0,10.0,-999,-99.99,,,-99.99,,2013-04-27 03:00:00,
2013-04-26 23:43:00,44.0,-99.9,30.37,SW,230,8.0,10.0,-999,-99.99,,,-99.99,,2013-04-27 03:43:00,
2013-04-26 23:53:00,44.0,-99.9,30.37,SW,230,8.0,10.0,-999,-99.99,,,-99.99,,2013-04-27 03:53:00,